createdAt,value
2019-01-03T00:01:24.619Z,72.36
2019-01-03T00:03:58.509Z,72.52
2019-01-03T00:06:32.382Z,72.61
2019-01-03T00:09:03.589Z,72.65
2019-01-03T00:11:34.794Z,72.73
2019-01-03T00:14:19.865Z,72.74
2019-01-03T00:17:07.443Z,72.78
2019-01-03T00:19:54.721Z,72.74
2019-01-03T00:22:24.132Z,72.77
2019-01-03T00:25:02.471Z,72.85
2019-01-03T00:27:36.318Z,73.09
2019-01-03T00:30:14.314Z,73.16
2019-01-03T00:32:45.530Z,73.28
2019-01-03T00:35:14.934Z,73.48
2019-01-03T00:37:57.796Z,73.75
2019-01-03T00:40:29.005Z,73.89
2019-01-03T00:43:00.239Z,73.96
2019-01-03T00:45:37.226Z,74.11
2019-01-03T00:48:25.066Z,74.33
2019-01-03T00:51:12.531Z,74.52
2019-01-03T00:53:58.779Z,74.57
2019-01-03T00:56:35.916Z,74.68
2019-01-03T00:59:13.071Z,74.83
2019-01-03T01:02:00.171Z,74.83
2019-01-03T01:04:48.006Z,74.90
2019-01-03T01:07:22.257Z,75.06
2019-01-03T01:09:53.499Z,75.21
2019-01-03T01:12:27.413Z,75.25
2019-01-03T01:15:14.019Z,75.29
2019-01-03T01:18:01.120Z,75.44
2019-01-03T01:20:47.130Z,75.55
2019-01-03T01:23:27.428Z,75.55
2019-01-03T01:25:58.659Z,75.65
2019-01-03T01:28:29.858Z,75.82
2019-01-03T01:31:04.076Z,76.05
2019-01-03T01:33:38.963Z,76.26
2019-01-03T01:36:26.013Z,76.35
2019-01-03T01:39:13.672Z,76.46
2019-01-03T01:41:44.921Z,76.48
2019-01-03T01:44:24.980Z,76.69
2019-01-03T01:46:59.355Z,76.88
2019-01-03T01:49:46.637Z,77.01
2019-01-03T01:52:26.407Z,77.21
2019-01-03T01:55:13.998Z,77.32
2019-01-03T01:57:45.399Z,77.41
2019-01-03T02:00:23.253Z,77.52
2019-01-03T02:03:10.339Z,77.60
2019-01-03T02:05:50.552Z,77.69
2019-01-03T02:08:30.478Z,77.83
2019-01-03T02:11:02.371Z,77.88
2019-01-03T02:13:37.854Z,78.02
2019-01-03T02:16:12.798Z,78.16
2019-01-03T02:18:46.786Z,78.24
2019-01-03T02:21:25.086Z,78.34
2019-01-03T02:24:03.541Z,78.43
2019-01-03T02:26:37.617Z,78.52
2019-01-03T02:29:08.772Z,78.55
2019-01-03T02:31:42.448Z,78.65
2019-01-03T02:34:13.605Z,78.70
2019-01-03T02:37:01.046Z,78.74
2019-01-03T02:39:48.241Z,78.86
2019-01-03T02:42:27.921Z,78.93
2019-01-03T02:45:18.425Z,78.99
2019-01-03T02:47:52.382Z,79.09
2019-01-03T02:50:23.569Z,79.27
2019-01-03T02:52:57.741Z,79.31
2019-01-03T02:55:31.849Z,79.40
2019-01-03T02:58:03.016Z,79.56
2019-01-03T03:00:49.077Z,79.53
2019-01-03T03:03:20.245Z,79.51
2019-01-03T03:06:07.779Z,79.54
2019-01-03T03:08:41.909Z,79.73
2019-01-03T03:11:13.871Z,79.77
2019-01-03T03:13:45.034Z,79.76
2019-01-03T03:16:32.077Z,79.81
2019-01-03T03:19:17.972Z,79.99
2019-01-03T03:21:58.071Z,80.08
2019-01-03T03:24:35.266Z,80.16
2019-01-03T03:27:04.591Z,80.21
2019-01-03T03:29:39.803Z,80.30
2019-01-03T03:32:21.628Z,80.30
2019-01-03T03:34:55.470Z,80.46
2019-01-03T03:37:32.553Z,80.53
2019-01-03T03:40:21.541Z,80.65
2019-01-03T03:42:55.392Z,80.66
2019-01-03T03:45:32.605Z,80.71
2019-01-03T03:48:15.549Z,80.79
2019-01-03T03:50:44.831Z,80.83
2019-01-03T03:53:32.526Z,80.94
2019-01-03T03:56:09.377Z,81.20
2019-01-03T03:58:52.264Z,81.14
2019-01-03T04:01:38.067Z,81.26
2019-01-03T04:04:07.566Z,81.39
2019-01-03T04:06:54.796Z,81.61
2019-01-03T04:09:37.789Z,81.88
2019-01-03T04:12:11.432Z,81.86
2019-01-03T04:14:42.589Z,82.10
2019-01-03T04:17:30.318Z,82.20
2019-01-03T04:20:11.573Z,82.23
2019-01-03T04:22:48.730Z,82.30
2019-01-03T04:25:22.825Z,82.42
2019-01-03T04:28:09.911Z,82.42
2019-01-03T04:30:41.081Z,82.66
2019-01-03T04:33:15.192Z,82.74
2019-01-03T04:35:58.301Z,82.90
2019-01-03T04:38:29.479Z,83.12
2019-01-03T04:41:15.425Z,83.21
2019-01-03T04:43:46.705Z,83.29
2019-01-03T04:46:29.989Z,83.29
2019-01-03T04:49:13.424Z,83.33
2019-01-03T04:51:59.327Z,83.45
2019-01-03T04:54:33.499Z,83.46
2019-01-03T04:57:13.946Z,83.40
2019-01-03T04:59:48.939Z,83.50
2019-01-03T05:02:24.108Z,83.51
2019-01-03T05:04:56.307Z,83.51
2019-01-03T05:07:37.331Z,83.53
2019-01-03T05:10:27.540Z,83.53
2019-01-03T05:13:14.966Z,83.43
2019-01-03T05:15:46.304Z,83.42
2019-01-03T05:18:33.255Z,83.35
2019-01-03T05:21:10.481Z,83.33
2019-01-03T05:23:48.629Z,83.33
2019-01-03T05:26:35.931Z,83.34
2019-01-03T05:29:09.656Z,83.28
2019-01-03T05:31:55.893Z,83.30
2019-01-03T05:34:36.869Z,83.37
2019-01-03T05:37:24.371Z,83.41
2019-01-03T05:40:07.272Z,83.48
2019-01-03T05:42:41.551Z,83.49
2019-01-03T05:45:21.752Z,83.54
2019-01-03T05:48:05.097Z,83.52
2019-01-03T05:50:38.688Z,83.44
2019-01-03T05:53:24.673Z,83.35
2019-01-03T05:56:12.106Z,83.40
2019-01-03T05:58:43.302Z,83.44
2019-01-03T06:01:30.240Z,83.48
2019-01-03T06:04:10.454Z,83.50
2019-01-03T06:06:47.637Z,83.37
2019-01-03T06:09:18.830Z,83.24
2019-01-03T06:11:53.770Z,83.16
2019-01-03T06:14:41.115Z,83.11
2019-01-03T06:17:12.277Z,83.01
2019-01-03T06:19:59.443Z,82.80
2019-01-03T06:22:47.250Z,82.71
2019-01-03T06:25:18.440Z,82.63
2019-01-03T06:27:58.318Z,82.54
2019-01-03T06:30:45.704Z,82.49
2019-01-03T06:33:19.350Z,82.37
2019-01-03T06:35:50.594Z,82.24
2019-01-03T06:38:38.486Z,82.22
2019-01-03T06:41:15.111Z,82.20
2019-01-03T06:43:46.405Z,82.15
2019-01-03T06:46:24.153Z,82.12
2019-01-03T06:48:57.820Z,82.17
2019-01-03T06:51:36.107Z,82.21
2019-01-03T06:54:08.288Z,82.20
2019-01-03T06:56:44.926Z,82.25
2019-01-03T06:59:30.836Z,82.30
2019-01-03T07:02:13.986Z,82.24
2019-01-03T07:05:03.214Z,82.12
2019-01-03T07:07:37.168Z,81.97
2019-01-03T07:10:25.357Z,81.89
2019-01-03T07:13:12.725Z,81.90
2019-01-03T07:15:47.539Z,81.89
2019-01-03T07:18:28.643Z,81.74
2019-01-03T07:21:11.564Z,81.48
2019-01-03T07:23:58.592Z,81.27
2019-01-03T07:26:45.526Z,80.96
2019-01-03T07:29:22.164Z,80.79
2019-01-03T07:32:09.274Z,80.61
2019-01-03T07:34:58.186Z,80.60
2019-01-03T07:37:29.385Z,80.32
2019-01-03T07:40:16.888Z,80.25
2019-01-03T07:43:05.855Z,80.20
2019-01-03T07:45:55.358Z,79.87
2019-01-03T07:48:30.518Z,79.60
2019-01-03T07:51:04.244Z,79.39
2019-01-03T07:53:50.496Z,79.17
2019-01-03T07:56:22.668Z,78.96
2019-01-03T07:59:08.943Z,78.71
2019-01-03T08:01:41.225Z,78.46
2019-01-03T08:04:10.519Z,78.26
2019-01-03T08:06:48.375Z,78.05
2019-01-03T08:09:20.431Z,77.95
2019-01-03T08:12:07.514Z,77.86
2019-01-03T08:14:42.791Z,77.62
2019-01-03T08:17:17.823Z,77.51
2019-01-03T08:20:07.095Z,77.40
2019-01-03T08:22:38.396Z,77.53
2019-01-03T08:25:14.027Z,77.39
2019-01-03T08:28:00.313Z,77.31
2019-01-03T08:30:31.540Z,76.75
2019-01-03T08:33:05.411Z,76.17
2019-01-03T08:35:42.299Z,76.00
2019-01-03T08:38:15.889Z,75.88
2019-01-03T08:40:52.755Z,75.62
2019-01-03T08:43:29.740Z,75.45
2019-01-03T08:46:12.539Z,75.15
2019-01-03T08:48:52.567Z,75.08
2019-01-03T08:51:29.653Z,74.60
2019-01-03T08:54:16.647Z,74.29
2019-01-03T08:56:53.549Z,73.92
2019-01-03T08:59:31.724Z,73.67
2019-01-03T09:02:09.069Z,73.53
2019-01-03T09:04:46.138Z,73.41
2019-01-03T09:07:24.699Z,73.22
2019-01-03T09:09:59.081Z,73.13
2019-01-03T09:12:30.362Z,72.97
2019-01-03T09:15:17.403Z,72.71
2019-01-03T09:17:48.593Z,72.65
2019-01-03T09:20:29.674Z,72.53
2019-01-03T09:23:10.816Z,72.43
2019-01-03T09:25:54.113Z,72.35
2019-01-03T09:28:41.527Z,72.10
2019-01-03T09:31:12.672Z,71.98
2019-01-03T09:33:43.831Z,71.91
2019-01-03T09:36:31.230Z,71.89
2019-01-03T09:39:20.536Z,71.87
2019-01-03T09:41:57.248Z,71.83
2019-01-03T09:44:28.395Z,71.82
2019-01-03T09:46:57.902Z,71.80
2019-01-03T09:49:27.530Z,71.81
2019-01-03T09:51:57.068Z,71.82
2019-01-03T09:54:26.585Z,71.79
2019-01-03T09:56:56.113Z,71.82
2019-01-03T09:59:25.921Z,71.84
2019-01-03T10:01:55.512Z,71.89
2019-01-03T10:04:25.174Z,71.88
2019-01-03T10:06:54.698Z,72.16
2019-01-03T10:09:24.247Z,72.53
2019-01-03T10:11:53.856Z,72.74
2019-01-03T10:14:23.367Z,72.86
2019-01-03T10:16:52.886Z,72.87
2019-01-03T10:19:22.430Z,72.92
2019-01-03T10:21:51.947Z,72.94
2019-01-03T10:24:21.465Z,72.92
2019-01-03T10:26:51.134Z,72.93
2019-01-03T10:29:20.679Z,72.83
2019-01-03T10:31:50.183Z,72.84
2019-01-03T10:34:19.706Z,72.81
2019-01-03T10:36:49.246Z,72.74
2019-01-03T10:39:18.755Z,72.71
2019-01-03T10:41:48.369Z,72.78
2019-01-03T10:44:17.925Z,72.77
2019-01-03T10:46:47.437Z,72.90
2019-01-03T10:49:16.976Z,73.31
2019-01-03T10:51:46.519Z,73.93
2019-01-03T10:54:16.041Z,74.75
2019-01-03T10:56:45.624Z,75.67
2019-01-03T10:59:15.154Z,76.59
2019-01-03T11:01:44.681Z,77.29
2019-01-03T11:04:14.216Z,77.91
2019-01-03T11:06:43.720Z,78.25
2019-01-03T11:09:13.272Z,78.49
2019-01-03T11:11:42.785Z,78.67
2019-01-03T11:14:12.321Z,78.72
2019-01-03T11:16:41.829Z,78.81
2019-01-03T11:19:11.363Z,78.85
2019-01-03T11:21:40.952Z,78.81
2019-01-03T11:24:10.480Z,78.74
2019-01-03T11:26:40.001Z,78.61
2019-01-03T11:29:09.516Z,78.60
2019-01-03T11:31:39.063Z,78.46
2019-01-03T11:34:08.603Z,78.15
2019-01-03T11:36:38.104Z,77.98
2019-01-03T11:39:07.887Z,77.67
2019-01-03T11:41:37.418Z,77.36
2019-01-03T11:44:06.945Z,77.31
2019-01-03T11:46:36.650Z,77.06
2019-01-03T11:49:06.171Z,76.86
2019-01-03T11:51:35.707Z,76.64
2019-01-03T11:54:05.217Z,76.41
2019-01-03T11:56:34.799Z,76.39
2019-01-03T11:59:04.301Z,76.33
2019-01-03T12:01:33.836Z,76.24
2019-01-03T12:04:03.360Z,76.09
2019-01-03T12:06:32.918Z,75.89
2019-01-03T12:09:02.472Z,75.91
2019-01-03T12:11:32.080Z,75.94
2019-01-03T12:14:01.602Z,75.92
2019-01-03T12:16:31.127Z,75.86
2019-01-03T12:19:00.629Z,75.87
2019-01-03T12:21:30.181Z,75.68
2019-01-03T12:23:59.683Z,75.60
2019-01-03T12:26:29.212Z,75.48
2019-01-03T12:28:58.728Z,75.49
2019-01-03T12:31:28.254Z,75.44
2019-01-03T12:33:57.767Z,75.40
2019-01-03T12:36:27.369Z,75.42
2019-01-03T12:38:56.891Z,75.39
2019-01-03T12:41:26.393Z,75.35
2019-01-03T12:43:55.939Z,75.39
2019-01-03T12:46:25.451Z,75.37
2019-01-03T12:48:54.986Z,75.30
2019-01-03T12:51:24.523Z,75.30
2019-01-03T12:53:54.470Z,75.25
2019-01-03T12:56:24.001Z,75.16
2019-01-03T12:58:53.534Z,75.19
2019-01-03T13:01:23.054Z,75.22
2019-01-03T13:03:52.572Z,75.25
2019-01-03T13:06:22.994Z,75.46
2019-01-03T13:08:52.576Z,75.56
2019-01-03T13:11:22.107Z,75.59
2019-01-03T13:13:51.642Z,75.63
2019-01-03T13:16:21.158Z,75.68
2019-01-03T13:18:50.702Z,75.58
2019-01-03T13:21:20.227Z,75.59
2019-01-03T13:23:49.735Z,75.58
2019-01-03T13:26:19.293Z,75.59
2019-01-03T13:28:48.800Z,75.65
2019-01-03T13:31:18.331Z,75.75
2019-01-03T13:33:47.851Z,75.80
2019-01-03T13:36:17.387Z,75.82
2019-01-03T13:38:46.892Z,75.86
2019-01-03T13:41:16.421Z,75.90
2019-01-03T13:43:45.928Z,75.84
2019-01-03T13:46:15.475Z,75.75
2019-01-03T13:48:45.327Z,75.68
2019-01-03T13:51:14.850Z,75.70
2019-01-03T13:53:44.403Z,75.74
2019-01-03T13:56:13.924Z,75.77
2019-01-03T13:58:43.468Z,75.73
2019-01-03T14:01:13.008Z,75.74
2019-01-03T14:03:42.527Z,75.82
2019-01-03T14:06:12.052Z,75.93
2019-01-03T14:08:41.588Z,76.04
2019-01-03T14:11:11.105Z,76.14
2019-01-03T14:13:40.702Z,76.21
2019-01-03T14:16:12.131Z,76.35
2019-01-03T14:18:41.708Z,76.45
2019-01-03T14:21:11.229Z,76.56
2019-01-03T14:23:40.770Z,76.66
2019-01-03T14:26:10.294Z,76.80
2019-01-03T14:28:39.847Z,76.80
2019-01-03T14:31:09.366Z,76.94
2019-01-03T14:33:38.915Z,77.21
2019-01-03T14:36:08.419Z,77.60
2019-01-03T14:38:37.972Z,77.96
2019-01-03T14:41:07.491Z,78.18
2019-01-03T14:43:37.039Z,78.46
2019-01-03T14:46:06.541Z,78.75
2019-01-03T14:48:36.072Z,78.95
2019-01-03T14:51:05.585Z,79.08
2019-01-03T14:53:35.124Z,79.25
2019-01-03T14:56:04.705Z,79.47
2019-01-03T14:58:34.244Z,79.60
2019-01-03T15:01:03.773Z,79.72
2019-01-03T15:03:33.381Z,79.85
2019-01-03T15:06:02.912Z,80.02
2019-01-03T15:08:32.434Z,80.19
2019-01-03T15:11:02.160Z,80.28
2019-01-03T15:13:31.682Z,80.43
2019-01-03T15:16:01.244Z,80.62
2019-01-03T15:18:30.769Z,80.79
2019-01-03T15:21:00.319Z,80.94
2019-01-03T15:23:29.832Z,81.07
2019-01-03T15:25:59.349Z,81.21
2019-01-03T15:28:28.904Z,81.27
2019-01-03T15:30:58.442Z,81.36
2019-01-03T15:33:27.963Z,81.38
2019-01-03T15:35:57.479Z,81.46
2019-01-03T15:38:27.024Z,81.60
2019-01-03T15:40:56.599Z,81.81
2019-01-03T15:43:26.110Z,81.94
2019-01-03T15:45:58.289Z,82.05
2019-01-03T15:48:27.818Z,82.01
2019-01-03T15:50:57.327Z,82.07
2019-01-03T15:53:26.863Z,82.02
2019-01-03T15:55:56.372Z,81.91
2019-01-03T15:58:25.926Z,81.83
2019-01-03T16:00:55.530Z,81.82
2019-01-03T16:03:25.055Z,81.80
2019-01-03T16:05:54.599Z,81.73
2019-01-03T16:08:24.126Z,81.58
2019-01-03T16:10:53.669Z,81.50
2019-01-03T16:13:23.189Z,81.50
2019-01-03T16:15:52.702Z,81.43
2019-01-03T16:18:22.348Z,81.33
2019-01-03T16:20:51.879Z,81.29
2019-01-03T16:23:21.400Z,81.16
2019-01-03T16:25:51.092Z,81.12
2019-01-03T16:28:20.582Z,81.08
2019-01-03T16:30:50.094Z,81.12
2019-01-03T16:33:19.796Z,81.12
2019-01-03T16:35:49.678Z,81.18
2019-01-03T16:38:19.305Z,81.25
2019-01-03T16:40:48.841Z,81.37
2019-01-03T16:43:18.355Z,81.54
2019-01-03T16:45:47.875Z,81.70
2019-01-03T16:48:17.494Z,81.78
2019-01-03T16:50:47.010Z,81.89
2019-01-03T16:53:16.530Z,81.95
2019-01-03T16:55:46.058Z,81.93
2019-01-03T16:58:15.656Z,81.94
2019-01-03T17:00:45.180Z,81.95
2019-01-03T17:03:15.262Z,82.01
2019-01-03T17:05:44.765Z,82.07
2019-01-03T17:08:14.290Z,82.18
2019-01-03T17:10:43.832Z,82.26
2019-01-03T17:13:13.349Z,82.31
2019-01-03T17:15:42.872Z,82.36
2019-01-03T17:18:12.399Z,82.36
2019-01-03T17:20:41.916Z,82.42
2019-01-03T17:23:11.422Z,82.54
2019-01-03T17:25:40.984Z,82.75
2019-01-03T17:28:10.510Z,82.96
2019-01-03T17:30:40.041Z,83.18
2019-01-03T17:33:09.570Z,83.42
2019-01-03T17:35:39.091Z,83.71
2019-01-03T17:38:08.610Z,83.96
2019-01-03T17:40:38.394Z,84.14
2019-01-03T17:43:07.901Z,84.42
2019-01-03T17:45:37.406Z,84.73
2019-01-03T17:48:07.100Z,84.97
2019-01-03T17:50:36.675Z,85.20
2019-01-03T17:53:06.246Z,85.36
2019-01-03T17:55:35.801Z,85.60
2019-01-03T17:58:05.311Z,85.81
2019-01-03T18:00:35.942Z,85.95
2019-01-03T18:03:05.747Z,86.10
2019-01-03T18:05:35.270Z,86.25
2019-01-03T18:08:04.797Z,86.44
2019-01-03T18:10:34.597Z,86.48
2019-01-03T18:13:04.106Z,86.57
2019-01-03T18:15:33.700Z,86.65
2019-01-03T18:18:03.246Z,86.66
2019-01-03T18:20:33.215Z,86.71
2019-01-03T18:23:02.864Z,86.81
2019-01-03T18:25:32.390Z,86.82
2019-01-03T18:28:01.929Z,86.98
2019-01-03T18:30:31.668Z,87.19
2019-01-03T18:33:01.223Z,87.36
2019-01-03T18:35:30.791Z,87.49
2019-01-03T18:38:00.343Z,87.62
2019-01-03T18:40:29.885Z,87.75
2019-01-03T18:42:59.510Z,87.87
2019-01-03T18:45:29.021Z,87.93
2019-01-03T18:47:58.560Z,88.03
2019-01-03T18:50:28.099Z,88.19
2019-01-03T18:52:57.683Z,88.38
2019-01-03T18:55:27.175Z,88.35
2019-01-03T18:57:56.716Z,88.33
2019-01-03T19:00:26.306Z,88.35
2019-01-03T19:02:55.879Z,88.33
2019-01-03T19:05:25.499Z,88.39
2019-01-03T19:07:55.045Z,88.45
2019-01-03T19:10:28.303Z,88.57
2019-01-03T19:12:55.939Z,88.68
2019-01-03T19:15:25.480Z,88.70
2019-01-03T19:17:55.034Z,88.72
2019-01-03T19:20:24.578Z,88.76
2019-01-03T19:22:54.120Z,88.85
2019-01-03T19:25:23.731Z,88.96
2019-01-03T19:27:53.274Z,89.03
2019-01-03T19:30:22.789Z,89.16
2019-01-03T19:32:52.331Z,89.32
2019-01-03T19:35:21.848Z,89.43
2019-01-03T19:37:51.392Z,89.53
2019-01-03T19:40:20.935Z,89.51
2019-01-03T19:42:50.503Z,89.47
2019-01-03T19:45:20.031Z,89.48
2019-01-03T19:47:49.691Z,89.48
2019-01-03T19:50:19.203Z,89.41
2019-01-03T19:52:48.730Z,89.37
2019-01-03T19:55:18.280Z,89.38
2019-01-03T19:57:47.802Z,89.47
2019-01-03T20:00:17.338Z,89.55
2019-01-03T20:02:47.045Z,89.62
2019-01-03T20:05:16.747Z,89.67
2019-01-03T20:07:46.404Z,89.75
2019-01-03T20:10:15.949Z,89.79
2019-01-03T20:12:45.496Z,89.87
2019-01-03T20:15:15.820Z,89.98
2019-01-03T20:17:45.366Z,90.01
2019-01-03T20:20:14.934Z,89.92
2019-01-03T20:22:44.452Z,89.88
2019-01-03T20:25:14.032Z,89.96
2019-01-03T20:27:43.532Z,90.04
2019-01-03T20:30:13.458Z,90.20
2019-01-03T20:32:43.043Z,90.27
2019-01-03T20:35:12.737Z,90.36
2019-01-03T20:37:42.363Z,90.43
2019-01-03T20:40:11.882Z,90.51
2019-01-03T20:42:41.435Z,90.64
2019-01-03T20:45:13.347Z,90.71
2019-01-03T20:47:43.007Z,90.69
2019-01-03T20:50:13.763Z,90.68
2019-01-03T20:52:43.353Z,90.60
2019-01-03T20:55:12.868Z,90.60
2019-01-03T20:57:42.679Z,90.53
2019-01-03T21:00:15.246Z,90.50
2019-01-03T21:02:44.845Z,90.61
2019-01-03T21:05:14.389Z,90.68
2019-01-03T21:07:44.027Z,90.75
2019-01-03T21:10:13.624Z,90.84
2019-01-03T21:12:43.150Z,90.95
2019-01-03T21:15:16.100Z,91.02
2019-01-03T21:17:45.636Z,91.05
2019-01-03T21:20:16.812Z,91.06
2019-01-03T21:22:46.427Z,91.04
2019-01-03T21:25:16.012Z,91.09
2019-01-03T21:27:45.545Z,91.17
2019-01-03T21:30:18.185Z,91.26
2019-01-03T21:32:47.779Z,91.30
2019-01-03T21:35:17.384Z,91.32
2019-01-03T21:37:46.926Z,91.38
2019-01-03T21:40:16.527Z,91.22
2019-01-03T21:42:46.082Z,91.01
2019-01-03T21:45:15.813Z,90.96
2019-01-03T21:47:45.342Z,90.98
2019-01-03T21:50:15.031Z,90.91
2019-01-03T21:52:44.846Z,90.80
2019-01-03T21:55:14.393Z,90.77
2019-01-03T21:57:43.919Z,90.76
2019-01-03T22:00:14.174Z,90.71
2019-01-03T22:02:43.783Z,90.65
2019-01-03T22:05:13.315Z,90.64
2019-01-03T22:07:42.957Z,90.65
2019-01-03T22:10:12.686Z,90.65
2019-01-03T22:12:42.213Z,90.62
2019-01-03T22:15:11.939Z,90.54
2019-01-03T22:17:41.488Z,90.46
2019-01-03T22:20:11.290Z,90.47
2019-01-03T22:22:40.863Z,90.58
2019-01-03T22:25:10.576Z,90.64
2019-01-03T22:27:40.107Z,90.62
2019-01-03T22:30:11.547Z,90.65
2019-01-03T22:32:41.053Z,90.67
2019-01-03T22:35:10.724Z,90.50
2019-01-03T22:37:40.259Z,90.40
2019-01-03T22:40:09.842Z,90.38
2019-01-03T22:42:39.446Z,90.35
2019-01-03T22:45:11.005Z,90.32
2019-01-03T22:47:40.509Z,90.12
2019-01-03T22:50:11.190Z,89.91
2019-01-03T22:52:40.823Z,89.55
2019-01-03T22:55:10.418Z,89.06
2019-01-03T22:57:39.946Z,88.56
2019-01-03T23:00:28.816Z,88.18
2019-01-03T23:02:58.402Z,87.88
2019-01-03T23:05:27.955Z,87.52
2019-01-03T23:07:57.719Z,87.28
2019-01-03T23:10:27.253Z,87.00
2019-01-03T23:12:56.774Z,86.77
2019-01-03T23:15:26.394Z,86.63
2019-01-03T23:17:55.915Z,86.51
2019-01-03T23:20:25.431Z,86.40
2019-01-03T23:22:55.005Z,86.24
2019-01-03T23:25:24.512Z,86.06
2019-01-03T23:27:54.055Z,85.87
2019-01-03T23:30:23.726Z,85.75
2019-01-03T23:32:53.251Z,85.62
2019-01-03T23:35:22.774Z,85.49
2019-01-03T23:37:52.309Z,85.33
2019-01-03T23:40:21.834Z,85.25
2019-01-03T23:42:51.345Z,85.22
2019-01-03T23:45:22.322Z,85.14
2019-01-03T23:47:53.098Z,85.01
2019-01-03T23:50:27.816Z,84.90
2019-01-03T23:52:57.553Z,84.77
2019-01-03T23:55:27.340Z,84.63
2019-01-03T23:57:56.847Z,84.59
